sensor_id;sensor_type;location;lat;lon;timestamp;P1;durP1;ratioP1;P2;durP2;ratioP2
17965;SDS011;9108;53.204;10.424;2024-02-26T05:01:59;6.15;;;3.08;;
17965;SDS011;9108;53.204;10.424;2024-02-26T05:04:26;6.57;;;2.50;;
17965;SDS011;9108;53.204;10.424;2024-02-26T05:06:53;5.15;;;2.65;;
17965;SDS011;9108;53.204;10.424;2024-02-26T05:09:20;5.32;;;2.60;;
17965;SDS011;9108;53.204;10.424;2024-02-26T05:11:47;5.82;;;2.78;;
17965;SDS011;9108;53.204;10.424;2024-02-26T05:14:14;5.10;;;2.70;;
17965;SDS011;9108;53.204;10.424;2024-02-26T05:16:41;8.07;;;3.00;;
17965;SDS011;9108;53.204;10.424;2024-02-26T05:19:10;6.00;;;3.00;;
17965;SDS011;9108;53.204;10.424;2024-02-26T05:21:37;6.10;;;3.13;;
17965;SDS011;9108;53.204;10.424;2024-02-26T05:24:05;10.35;;;4.82;;
17965;SDS011;9108;53.204;10.424;2024-02-26T05:26:32;11.05;;;4.93;;
17965;SDS011;9108;53.204;10.424;2024-02-26T05:29:00;9.93;;;5.00;;
17965;SDS011;9108;53.204;10.424;2024-02-26T05:31:27;8.50;;;4.07;;
17965;SDS011;9108;53.204;10.424;2024-02-26T05:33:54;7.60;;;3.53;;
17965;SDS011;9108;53.204;10.424;2024-02-26T05:36:23;6.93;;;3.25;;
17965;SDS011;9108;53.204;10.424;2024-02-26T05:38:51;7.93;;;3.50;;
17965;SDS011;9108;53.204;10.424;2024-02-26T05:41:18;6.97;;;3.20;;
17965;SDS011;9108;53.204;10.424;2024-02-26T05:43:48;5.78;;;3.30;;
17965;SDS011;9108;53.204;10.424;2024-02-26T05:46:16;6.25;;;3.13;;
17965;SDS011;9108;53.204;10.424;2024-02-26T05:48:43;5.63;;;3.20;;
17965;SDS011;9108;53.204;10.424;2024-02-26T05:51:10;5.63;;;3.20;;
17965;SDS011;9108;53.204;10.424;2024-02-26T05:53:39;6.50;;;3.27;;
17965;SDS011;9108;53.204;10.424;2024-02-26T05:56:06;7.38;;;3.25;;
17965;SDS011;9108;53.204;10.424;2024-02-26T05:58:33;6.80;;;3.20;;
17965;SDS011;9108;53.204;10.424;2024-02-26T06:01:00;6.67;;;3.37;;
17965;SDS011;9108;53.204;10.424;2024-02-26T06:03:27;6.88;;;3.30;;
17965;SDS011;9108;53.204;10.424;2024-02-26T06:05:54;6.47;;;3.60;;
17965;SDS011;9108;53.204;10.424;2024-02-26T06:08:21;5.63;;;3.40;;
17965;SDS011;9108;53.204;10.424;2024-02-26T06:10:50;6.82;;;3.38;;
17965;SDS011;9108;53.204;10.424;2024-02-26T06:13:17;6.63;;;3.60;;
17965;SDS011;9108;53.204;10.424;2024-02-26T06:15:44;8.43;;;3.50;;
17965;SDS011;9108;53.204;10.424;2024-02-26T06:18:11;6.20;;;3.40;;
17965;SDS011;9108;53.204;10.424;2024-02-26T06:20:38;7.18;;;3.70;;
17965;SDS011;9108;53.204;10.424;2024-02-26T06:23:05;8.88;;;4.30;;
17965;SDS011;9108;53.204;10.424;2024-02-26T06:25:33;10.88;;;5.07;;
17965;SDS011;9108;53.204;10.424;2024-02-26T06:28:01;8.98;;;5.15;;
17965;SDS011;9108;53.204;10.424;2024-02-26T06:30:28;10.80;;;5.55;;
17965;SDS011;9108;53.204;10.424;2024-02-26T06:32:55;12.20;;;5.40;;
17965;SDS011;9108;53.204;10.424;2024-02-26T06:35:22;11.52;;;5.70;;
17965;SDS011;9108;53.204;10.424;2024-02-26T06:37:50;12.32;;;5.85;;
17965;SDS011;9108;53.204;10.424;2024-02-26T06:40:18;9.18;;;5.18;;
17965;SDS011;9108;53.204;10.424;2024-02-26T06:42:45;10.30;;;5.20;;
17965;SDS011;9108;53.204;10.424;2024-02-26T06:45:13;9.70;;;4.90;;
17965;SDS011;9108;53.204;10.424;2024-02-26T06:47:40;10.05;;;5.45;;
17965;SDS011;9108;53.204;10.424;2024-02-26T06:50:08;10.60;;;5.53;;
17965;SDS011;9108;53.204;10.424;2024-02-26T06:52:35;10.57;;;5.50;;
17965;SDS011;9108;53.204;10.424;2024-02-26T06:55:03;9.20;;;5.53;;
17965;SDS011;9108;53.204;10.424;2024-02-26T06:57:33;11.40;;;5.82;;
17965;SDS011;9108;53.204;10.424;2024-02-26T07:00:00;10.55;;;5.85;;
17965;SDS011;9108;53.204;10.424;2024-02-26T07:02:30;11.35;;;6.00;;
17965;SDS011;9108;53.204;10.424;2024-02-26T07:04:57;10.52;;;5.70;;
17965;SDS011;9108;53.204;10.424;2024-02-26T07:07:24;10.63;;;5.07;;
17965;SDS011;9108;53.204;10.424;2024-02-26T07:09:51;9.65;;;5.22;;
17965;SDS011;9108;53.204;10.424;2024-02-26T07:12:19;12.88;;;6.32;;
17965;SDS011;9108;53.204;10.424;2024-02-26T07:14:46;10.48;;;5.90;;
17965;SDS011;9108;53.204;10.424;2024-02-26T07:17:14;12.27;;;6.22;;
17965;SDS011;9108;53.204;10.424;2024-02-26T07:19:42;13.45;;;7.13;;
17965;SDS011;9108;53.204;10.424;2024-02-26T07:22:09;11.85;;;6.78;;
17965;SDS011;9108;53.204;10.424;2024-02-26T07:24:36;11.38;;;6.00;;
17965;SDS011;9108;53.204;10.424;2024-02-26T07:27:04;10.90;;;6.00;;
17965;SDS011;9108;53.204;10.424;2024-02-26T07:29:31;11.63;;;6.37;;
17965;SDS011;9108;53.204;10.424;2024-02-26T07:31:58;12.13;;;6.90;;
17965;SDS011;9108;53.204;10.424;2024-02-26T07:34:25;13.77;;;6.95;;
17965;SDS011;9108;53.204;10.424;2024-02-26T07:36:55;12.00;;;6.70;;
17965;SDS011;9108;53.204;10.424;2024-02-26T07:39:23;14.30;;;6.65;;
17965;SDS011;9108;53.204;10.424;2024-02-26T07:41:50;14.50;;;6.97;;
17965;SDS011;9108;53.204;10.424;2024-02-26T07:44:18;12.70;;;7.40;;
17965;SDS011;9108;53.204;10.424;2024-02-26T07:46:45;13.48;;;7.45;;
17965;SDS011;9108;53.204;10.424;2024-02-26T07:49:12;12.75;;;7.10;;
17965;SDS011;9108;53.204;10.424;2024-02-26T07:51:39;11.98;;;7.38;;
17965;SDS011;9108;53.204;10.424;2024-02-26T07:54:07;12.93;;;6.88;;
17965;SDS011;9108;53.204;10.424;2024-02-26T07:56:34;11.27;;;6.80;;
17965;SDS011;9108;53.204;10.424;2024-02-26T07:59:02;13.13;;;7.30;;
17965;SDS011;9108;53.204;10.424;2024-02-26T08:01:29;13.63;;;7.20;;
17965;SDS011;9108;53.204;10.424;2024-02-26T08:03:56;13.23;;;7.20;;
17965;SDS011;9108;53.204;10.424;2024-02-26T08:06:23;13.38;;;7.05;;
17965;SDS011;9108;53.204;10.424;2024-02-26T08:08:50;12.68;;;6.85;;
17965;SDS011;9108;53.204;10.424;2024-02-26T08:11:19;11.93;;;6.63;;
17965;SDS011;9108;53.204;10.424;2024-02-26T08:13:46;11.80;;;6.85;;
17965;SDS011;9108;53.204;10.424;2024-02-26T08:16:13;13.00;;;7.05;;
17965;SDS011;9108;53.204;10.424;2024-02-26T08:18:40;11.95;;;6.90;;
17965;SDS011;9108;53.204;10.424;2024-02-26T08:21:07;12.85;;;7.20;;
17965;SDS011;9108;53.204;10.424;2024-02-26T08:23:34;16.00;;;8.32;;
17965;SDS011;9108;53.204;10.424;2024-02-26T08:26:02;13.85;;;7.97;;
17965;SDS011;9108;53.204;10.424;2024-02-26T08:28:37;14.20;;;8.20;;
17965;SDS011;9108;53.204;10.424;2024-02-26T08:31:04;12.68;;;7.72;;
17965;SDS011;9108;53.204;10.424;2024-02-26T08:33:32;14.43;;;8.00;;
17965;SDS011;9108;53.204;10.424;2024-02-26T08:36:03;14.65;;;8.80;;
17965;SDS011;9108;53.204;10.424;2024-02-26T08:38:30;14.55;;;8.57;;
17965;SDS011;9108;53.204;10.424;2024-02-26T08:40:59;14.77;;;8.50;;
17965;SDS011;9108;53.204;10.424;2024-02-26T08:43:26;14.93;;;8.35;;
17965;SDS011;9108;53.204;10.424;2024-02-26T08:45:58;15.27;;;8.75;;
17965;SDS011;9108;53.204;10.424;2024-02-26T08:48:25;15.25;;;8.73;;
17965;SDS011;9108;53.204;10.424;2024-02-26T08:50:52;14.20;;;8.80;;
17965;SDS011;9108;53.204;10.424;2024-02-26T08:53:19;14.20;;;8.88;;
17965;SDS011;9108;53.204;10.424;2024-02-26T08:55:46;16.85;;;9.30;;
17965;SDS011;9108;53.204;10.424;2024-02-26T08:58:13;15.07;;;9.38;;
17965;SDS011;9108;53.204;10.424;2024-02-26T09:00:40;17.70;;;8.88;;
17965;SDS011;9108;53.204;10.424;2024-02-26T09:03:09;13.15;;;8.40;;
17965;SDS011;9108;53.204;10.424;2024-02-26T09:05:36;13.63;;;8.77;;
17965;SDS011;9108;53.204;10.424;2024-02-26T09:08:03;14.15;;;8.68;;
17965;SDS011;9108;53.204;10.424;2024-02-26T09:10:31;13.57;;;8.10;;
17965;SDS011;9108;53.204;10.424;2024-02-26T09:12:58;16.63;;;8.85;;
17965;SDS011;9108;53.204;10.424;2024-02-26T09:15:25;14.32;;;8.13;;
17965;SDS011;9108;53.204;10.424;2024-02-26T09:17:52;11.73;;;7.60;;
17965;SDS011;9108;53.204;10.424;2024-02-26T09:20:21;12.43;;;8.00;;
17965;SDS011;9108;53.204;10.424;2024-02-26T09:22:48;12.57;;;7.95;;
17965;SDS011;9108;53.204;10.424;2024-02-26T09:25:16;13.00;;;8.23;;
17965;SDS011;9108;53.204;10.424;2024-02-26T09:27:43;12.88;;;7.97;;
17965;SDS011;9108;53.204;10.424;2024-02-26T09:30:10;12.07;;;7.60;;
17965;SDS011;9108;53.204;10.424;2024-02-26T09:32:38;10.80;;;6.85;;
17965;SDS011;9108;53.204;10.424;2024-02-26T09:35:05;9.98;;;6.63;;
17965;SDS011;9108;53.204;10.424;2024-02-26T09:37:34;11.38;;;7.03;;
17965;SDS011;9108;53.204;10.424;2024-02-26T09:40:02;11.23;;;7.40;;
17965;SDS011;9108;53.204;10.424;2024-02-26T09:42:29;10.45;;;6.63;;
17965;SDS011;9108;53.204;10.424;2024-02-26T09:44:59;11.48;;;7.00;;
17965;SDS011;9108;53.204;10.424;2024-02-26T09:47:28;11.80;;;6.95;;
17965;SDS011;9108;53.204;10.424;2024-02-26T09:49:55;11.25;;;6.43;;
17965;SDS011;9108;53.204;10.424;2024-02-26T09:52:23;10.60;;;6.53;;
17965;SDS011;9108;53.204;10.424;2024-02-26T09:54:52;9.25;;;5.70;;
17965;SDS011;9108;53.204;10.424;2024-02-26T09:57:19;11.77;;;5.78;;
17965;SDS011;9108;53.204;10.424;2024-02-26T09:59:49;8.90;;;5.40;;
17965;SDS011;9108;53.204;10.424;2024-02-26T10:02:18;9.60;;;5.10;;
17965;SDS011;9108;53.204;10.424;2024-02-26T10:04:46;8.00;;;5.00;;
17965;SDS011;9108;53.204;10.424;2024-02-26T10:07:16;7.50;;;4.68;;
17965;SDS011;9108;53.204;10.424;2024-02-26T10:09:43;8.00;;;4.63;;
17965;SDS011;9108;53.204;10.424;2024-02-26T10:12:12;6.78;;;4.40;;
17965;SDS011;9108;53.204;10.424;2024-02-26T10:14:40;7.72;;;4.50;;
17965;SDS011;9108;53.204;10.424;2024-02-26T10:17:07;7.40;;;4.60;;
17965;SDS011;9108;53.204;10.424;2024-02-26T10:19:35;7.32;;;4.22;;
17965;SDS011;9108;53.204;10.424;2024-02-26T10:22:03;7.10;;;4.60;;
17965;SDS011;9108;53.204;10.424;2024-02-26T10:24:30;6.75;;;4.40;;
17965;SDS011;9108;53.204;10.424;2024-02-26T10:26:59;8.05;;;4.30;;
17965;SDS011;9108;53.204;10.424;2024-02-26T10:29:27;7.78;;;4.40;;
17965;SDS011;9108;53.204;10.424;2024-02-26T10:31:55;7.60;;;4.40;;
17965;SDS011;9108;53.204;10.424;2024-02-26T10:34:22;7.30;;;4.20;;
17965;SDS011;9108;53.204;10.424;2024-02-26T10:36:50;6.40;;;3.97;;
17965;SDS011;9108;53.204;10.424;2024-02-26T10:39:17;7.78;;;4.20;;
17965;SDS011;9108;53.204;10.424;2024-02-26T10:41:44;6.25;;;3.90;;
17965;SDS011;9108;53.204;10.424;2024-02-26T10:44:12;6.80;;;3.97;;
17965;SDS011;9108;53.204;10.424;2024-02-26T10:46:41;6.28;;;3.60;;
17965;SDS011;9108;53.204;10.424;2024-02-26T10:49:12;7.57;;;3.30;;
17965;SDS011;9108;53.204;10.424;2024-02-26T10:51:40;6.25;;;3.40;;
17965;SDS011;9108;53.204;10.424;2024-02-26T10:54:10;6.75;;;3.20;;
17965;SDS011;9108;53.204;10.424;2024-02-26T10:56:39;4.93;;;3.00;;
17965;SDS011;9108;53.204;10.424;2024-02-26T10:59:09;5.18;;;2.80;;
17965;SDS011;9108;53.204;10.424;2024-02-26T11:01:36;4.25;;;2.70;;
17965;SDS011;9108;53.204;10.424;2024-02-26T11:04:05;3.47;;;2.40;;
17965;SDS011;9108;53.204;10.424;2024-02-26T11:06:32;4.07;;;2.50;;
17965;SDS011;9108;53.204;10.424;2024-02-26T11:09:00;4.28;;;2.50;;
17965;SDS011;9108;53.204;10.424;2024-02-26T11:11:28;4.10;;;2.47;;
17965;SDS011;9108;53.204;10.424;2024-02-26T11:13:55;4.03;;;2.30;;
17965;SDS011;9108;53.204;10.424;2024-02-26T11:16:23;4.53;;;2.40;;
17965;SDS011;9108;53.204;10.424;2024-02-26T11:18:50;4.07;;;2.20;;
17965;SDS011;9108;53.204;10.424;2024-02-26T11:21:21;5.15;;;2.58;;
17965;SDS011;9108;53.204;10.424;2024-02-26T11:23:55;3.50;;;2.10;;
17965;SDS011;9108;53.204;10.424;2024-02-26T11:26:22;4.57;;;2.30;;
17965;SDS011;9108;53.204;10.424;2024-02-26T11:28:50;3.67;;;2.03;;
17965;SDS011;9108;53.204;10.424;2024-02-26T11:31:18;3.70;;;2.10;;
17965;SDS011;9108;53.204;10.424;2024-02-26T11:33:51;3.38;;;1.92;;
17965;SDS011;9108;53.204;10.424;2024-02-26T11:36:18;5.07;;;2.08;;
17965;SDS011;9108;53.204;10.424;2024-02-26T11:38:47;3.83;;;2.10;;
17965;SDS011;9108;53.204;10.424;2024-02-26T11:41:17;2.95;;;1.90;;
17965;SDS011;9108;53.204;10.424;2024-02-26T11:43:50;3.20;;;1.73;;
17965;SDS011;9108;53.204;10.424;2024-02-26T11:46:24;3.50;;;2.10;;
17965;SDS011;9108;53.204;10.424;2024-02-26T11:48:53;3.13;;;2.00;;
17965;SDS011;9108;53.204;10.424;2024-02-26T11:51:24;3.58;;;1.83;;
17965;SDS011;9108;53.204;10.424;2024-02-26T11:53:54;3.35;;;2.10;;
17965;SDS011;9108;53.204;10.424;2024-02-26T11:56:23;3.03;;;1.75;;
17965;SDS011;9108;53.204;10.424;2024-02-26T11:58:58;3.00;;;2.00;;
17965;SDS011;9108;53.204;10.424;2024-02-26T12:01:35;3.10;;;1.80;;
17965;SDS011;9108;53.204;10.424;2024-02-26T12:04:02;3.17;;;2.00;;
17965;SDS011;9108;53.204;10.424;2024-02-26T12:06:29;3.30;;;2.08;;
17965;SDS011;9108;53.204;10.424;2024-02-26T12:08:58;4.40;;;1.90;;
17965;SDS011;9108;53.204;10.424;2024-02-26T12:11:27;3.55;;;1.98;;
17965;SDS011;9108;53.204;10.424;2024-02-26T12:13:54;3.03;;;1.98;;
17965;SDS011;9108;53.204;10.424;2024-02-26T12:16:34;2.55;;;1.80;;
17965;SDS011;9108;53.204;10.424;2024-02-26T12:19:02;3.17;;;1.95;;
17965;SDS011;9108;53.204;10.424;2024-02-26T12:21:30;3.95;;;1.92;;
17965;SDS011;9108;53.204;10.424;2024-02-26T12:24:07;3.58;;;2.13;;
17965;SDS011;9108;53.204;10.424;2024-02-26T12:26:36;3.42;;;2.00;;
17965;SDS011;9108;53.204;10.424;2024-02-26T12:29:03;4.07;;;2.38;;
17965;SDS011;9108;53.204;10.424;2024-02-26T12:31:30;3.40;;;2.00;;
17965;SDS011;9108;53.204;10.424;2024-02-26T12:33:58;3.72;;;2.00;;
17965;SDS011;9108;53.204;10.424;2024-02-26T12:36:25;5.00;;;2.20;;
17965;SDS011;9108;53.204;10.424;2024-02-26T12:38:52;3.30;;;2.10;;
17965;SDS011;9108;53.204;10.424;2024-02-26T12:41:20;2.90;;;1.80;;
17965;SDS011;9108;53.204;10.424;2024-02-26T12:43:48;3.33;;;1.90;;
17965;SDS011;9108;53.204;10.424;2024-02-26T12:46:15;2.90;;;1.90;;
17965;SDS011;9108;53.204;10.424;2024-02-26T12:48:42;4.38;;;2.00;;
17965;SDS011;9108;53.204;10.424;2024-02-26T12:51:11;3.20;;;1.80;;
17965;SDS011;9108;53.204;10.424;2024-02-26T12:53:38;4.15;;;1.85;;
17965;SDS011;9108;53.204;10.424;2024-02-26T12:56:06;4.00;;;1.95;;
17965;SDS011;9108;53.204;10.424;2024-02-26T12:58:35;3.13;;;1.70;;
17965;SDS011;9108;53.204;10.424;2024-02-26T13:01:04;3.55;;;1.80;;
17965;SDS011;9108;53.204;10.424;2024-02-26T13:03:31;4.18;;;2.28;;
17965;SDS011;9108;53.204;10.424;2024-02-26T13:05:58;3.80;;;2.20;;
17965;SDS011;9108;53.204;10.424;2024-02-26T13:08:26;3.97;;;2.20;;
17965;SDS011;9108;53.204;10.424;2024-02-26T13:10:54;5.22;;;2.60;;
17965;SDS011;9108;53.204;10.424;2024-02-26T13:13:22;4.85;;;2.90;;
17965;SDS011;9108;53.204;10.424;2024-02-26T13:16:00;2.73;;;2.03;;
17965;SDS011;9108;53.204;10.424;2024-02-26T13:18:28;4.17;;;2.10;;
17965;SDS011;9108;53.204;10.424;2024-02-26T13:21:05;4.38;;;2.40;;
17965;SDS011;9108;53.204;10.424;2024-02-26T13:23:32;6.75;;;3.28;;
17965;SDS011;9108;53.204;10.424;2024-02-26T13:26:00;4.15;;;2.47;;
17965;SDS011;9108;53.204;10.424;2024-02-26T13:28:27;4.15;;;2.03;;
17965;SDS011;9108;53.204;10.424;2024-02-26T13:30:56;2.92;;;1.70;;
17965;SDS011;9108;53.204;10.424;2024-02-26T13:33:25;3.53;;;1.88;;
17965;SDS011;9108;53.204;10.424;2024-02-26T13:35:52;4.00;;;1.80;;
17965;SDS011;9108;53.204;10.424;2024-02-26T13:38:20;2.78;;;1.60;;
17965;SDS011;9108;53.204;10.424;2024-02-26T13:40:47;4.25;;;1.63;;
17965;SDS011;9108;53.204;10.424;2024-02-26T13:43:14;2.33;;;1.50;;
17965;SDS011;9108;53.204;10.424;2024-02-26T13:45:41;2.35;;;1.50;;
17965;SDS011;9108;53.204;10.424;2024-02-26T13:48:10;2.50;;;1.40;;
17965;SDS011;9108;53.204;10.424;2024-02-26T13:50:37;2.25;;;1.60;;
17965;SDS011;9108;53.204;10.424;2024-02-26T13:53:04;2.80;;;1.50;;
17965;SDS011;9108;53.204;10.424;2024-02-26T13:55:32;2.75;;;1.60;;
17965;SDS011;9108;53.204;10.424;2024-02-26T13:57:59;2.80;;;1.50;;
17965;SDS011;9108;53.204;10.424;2024-02-26T14:00:27;2.90;;;1.55;;
17965;SDS011;9108;53.204;10.424;2024-02-26T14:02:54;3.50;;;1.50;;
17965;SDS011;9108;53.204;10.424;2024-02-26T14:05:23;2.55;;;1.60;;
17965;SDS011;9108;53.204;10.424;2024-02-26T14:07:50;4.63;;;2.00;;
17965;SDS011;9108;53.204;10.424;2024-02-26T14:10:17;3.22;;;1.63;;
17965;SDS011;9108;53.204;10.424;2024-02-26T14:12:44;3.08;;;1.90;;
17965;SDS011;9108;53.204;10.424;2024-02-26T14:15:11;3.50;;;1.80;;
17965;SDS011;9108;53.204;10.424;2024-02-26T14:17:38;3.97;;;1.98;;
17965;SDS011;9108;53.204;10.424;2024-02-26T14:20:06;3.55;;;1.80;;
17965;SDS011;9108;53.204;10.424;2024-02-26T14:22:35;2.97;;;1.83;;
17965;SDS011;9108;53.204;10.424;2024-02-26T14:25:02;3.30;;;1.80;;
17965;SDS011;9108;53.204;10.424;2024-02-26T14:27:30;4.20;;;2.30;;
17965;SDS011;9108;53.204;10.424;2024-02-26T14:29:57;4.20;;;2.10;;
17965;SDS011;9108;53.204;10.424;2024-02-26T14:32:24;4.47;;;2.20;;
17965;SDS011;9108;53.204;10.424;2024-02-26T14:34:52;4.28;;;2.30;;
17965;SDS011;9108;53.204;10.424;2024-02-26T14:37:20;4.00;;;2.33;;
17965;SDS011;9108;53.204;10.424;2024-02-26T14:39:49;5.18;;;2.70;;
17965;SDS011;9108;53.204;10.424;2024-02-26T14:42:17;4.68;;;2.70;;
17965;SDS011;9108;53.204;10.424;2024-02-26T14:44:44;4.70;;;2.90;;
17965;SDS011;9108;53.204;10.424;2024-02-26T14:47:12;5.05;;;2.75;;
17965;SDS011;9108;53.204;10.424;2024-02-26T14:49:39;5.28;;;2.92;;
17965;SDS011;9108;53.204;10.424;2024-02-26T14:52:07;5.30;;;3.20;;
17965;SDS011;9108;53.204;10.424;2024-02-26T14:54:34;5.90;;;3.67;;
17965;SDS011;9108;53.204;10.424;2024-02-26T14:57:05;4.97;;;3.33;;
17965;SDS011;9108;53.204;10.424;2024-02-26T14:59:32;7.13;;;3.50;;
17965;SDS011;9108;53.204;10.424;2024-02-26T15:02:01;6.05;;;3.40;;
17965;SDS011;9108;53.204;10.424;2024-02-26T15:04:28;5.70;;;3.50;;
17965;SDS011;9108;53.204;10.424;2024-02-26T15:06:55;5.88;;;3.75;;
17965;SDS011;9108;53.204;10.424;2024-02-26T15:09:26;7.05;;;4.00;;
17965;SDS011;9108;53.204;10.424;2024-02-26T15:11:53;6.80;;;4.40;;
17965;SDS011;9108;53.204;10.424;2024-02-26T15:14:21;10.03;;;4.70;;
17965;SDS011;9108;53.204;10.424;2024-02-26T15:16:49;7.32;;;4.82;;
17965;SDS011;9108;53.204;10.424;2024-02-26T15:19:16;8.13;;;5.05;;
17965;SDS011;9108;53.204;10.424;2024-02-26T15:21:43;7.45;;;5.03;;
17965;SDS011;9108;53.204;10.424;2024-02-26T15:24:12;9.50;;;5.72;;
17965;SDS011;9108;53.204;10.424;2024-02-26T15:26:41;9.98;;;6.50;;
17965;SDS011;9108;53.204;10.424;2024-02-26T15:29:08;11.53;;;7.07;;
17965;SDS011;9108;53.204;10.424;2024-02-26T15:31:37;13.60;;;7.30;;
17965;SDS011;9108;53.204;10.424;2024-02-26T15:34:04;13.20;;;7.93;;
17965;SDS011;9108;53.204;10.424;2024-02-26T15:36:31;14.23;;;8.50;;
17965;SDS011;9108;53.204;10.424;2024-02-26T15:38:58;15.27;;;9.00;;
17965;SDS011;9108;53.204;10.424;2024-02-26T15:41:25;16.20;;;9.57;;
17965;SDS011;9108;53.204;10.424;2024-02-26T15:43:52;17.40;;;9.63;;
17965;SDS011;9108;53.204;10.424;2024-02-26T15:46:21;18.55;;;10.32;;
17965;SDS011;9108;53.204;10.424;2024-02-26T15:48:50;18.10;;;10.32;;
17965;SDS011;9108;53.204;10.424;2024-02-26T15:51:20;17.35;;;9.80;;
17965;SDS011;9108;53.204;10.424;2024-02-26T15:53:49;17.50;;;9.88;;
17965;SDS011;9108;53.204;10.424;2024-02-26T15:56:16;17.63;;;10.18;;
17965;SDS011;9108;53.204;10.424;2024-02-26T15:58:43;19.40;;;10.50;;
17965;SDS011;9108;53.204;10.424;2024-02-26T16:01:10;19.27;;;10.80;;
17965;SDS011;9108;53.204;10.424;2024-02-26T16:03:38;18.63;;;10.52;;
17965;SDS011;9108;53.204;10.424;2024-02-26T16:06:07;19.77;;;11.10;;
17965;SDS011;9108;53.204;10.424;2024-02-26T16:08:36;20.02;;;10.93;;
17965;SDS011;9108;53.204;10.424;2024-02-26T16:11:03;21.70;;;11.40;;
17965;SDS011;9108;53.204;10.424;2024-02-26T16:13:30;23.00;;;12.13;;
17965;SDS011;9108;53.204;10.424;2024-02-26T16:15:59;23.05;;;12.32;;
17965;SDS011;9108;53.204;10.424;2024-02-26T16:18:28;25.13;;;12.35;;
17965;SDS011;9108;53.204;10.424;2024-02-26T16:20:56;23.13;;;12.18;;
17965;SDS011;9108;53.204;10.424;2024-02-26T16:23:25;23.63;;;12.57;;
17965;SDS011;9108;53.204;10.424;2024-02-26T16:25:52;24.92;;;12.82;;
17965;SDS011;9108;53.204;10.424;2024-02-26T16:28:19;23.90;;;12.82;;
17965;SDS011;9108;53.204;10.424;2024-02-26T16:30:50;26.17;;;13.30;;
17965;SDS011;9108;53.204;10.424;2024-02-26T16:33:19;26.88;;;13.27;;
17965;SDS011;9108;53.204;10.424;2024-02-26T16:35:46;25.07;;;13.00;;
17965;SDS011;9108;53.204;10.424;2024-02-26T16:38:13;28.30;;;14.37;;
17965;SDS011;9108;53.204;10.424;2024-02-26T16:40:42;27.90;;;13.75;;
17965;SDS011;9108;53.204;10.424;2024-02-26T16:43:09;27.35;;;13.45;;
17965;SDS011;9108;53.204;10.424;2024-02-26T16:45:36;27.75;;;13.90;;
17965;SDS011;9108;53.204;10.424;2024-02-26T16:48:04;26.48;;;13.48;;
17965;SDS011;9108;53.204;10.424;2024-02-26T16:50:31;27.53;;;13.70;;
17965;SDS011;9108;53.204;10.424;2024-02-26T16:52:58;28.70;;;14.05;;
17965;SDS011;9108;53.204;10.424;2024-02-26T16:55:25;31.05;;;14.43;;
17965;SDS011;9108;53.204;10.424;2024-02-26T16:57:55;31.17;;;14.70;;
17965;SDS011;9108;53.204;10.424;2024-02-26T17:00:22;32.60;;;15.48;;
17965;SDS011;9108;53.204;10.424;2024-02-26T17:02:49;32.00;;;15.13;;
17965;SDS011;9108;53.204;10.424;2024-02-26T17:05:17;34.92;;;15.93;;
17965;SDS011;9108;53.204;10.424;2024-02-26T17:07:44;35.58;;;15.70;;
17965;SDS011;9108;53.204;10.424;2024-02-26T17:10:12;34.63;;;15.93;;
17965;SDS011;9108;53.204;10.424;2024-02-26T17:12:39;36.45;;;16.25;;
17965;SDS011;9108;53.204;10.424;2024-02-26T17:15:08;35.47;;;15.80;;
17965;SDS011;9108;53.204;10.424;2024-02-26T17:17:36;35.28;;;15.95;;
17965;SDS011;9108;53.204;10.424;2024-02-26T17:20:03;34.85;;;16.33;;
17965;SDS011;9108;53.204;10.424;2024-02-26T17:22:30;36.13;;;16.88;;
17965;SDS011;9108;53.204;10.424;2024-02-26T17:24:57;36.97;;;16.50;;
17965;SDS011;9108;53.204;10.424;2024-02-26T17:27:25;35.20;;;16.40;;
17965;SDS011;9108;53.204;10.424;2024-02-26T17:29:52;36.10;;;16.33;;
17965;SDS011;9108;53.204;10.424;2024-02-26T17:32:20;39.38;;;16.70;;
17965;SDS011;9108;53.204;10.424;2024-02-26T17:34:47;36.23;;;16.50;;
17965;SDS011;9108;53.204;10.424;2024-02-26T17:37:14;40.20;;;17.17;;
17965;SDS011;9108;53.204;10.424;2024-02-26T17:39:42;40.63;;;17.45;;
17965;SDS011;9108;53.204;10.424;2024-02-26T17:42:09;40.38;;;17.83;;
17965;SDS011;9108;53.204;10.424;2024-02-26T17:44:37;37.55;;;16.73;;
17965;SDS011;9108;53.204;10.424;2024-02-26T17:47:04;38.53;;;16.33;;
17965;SDS011;9108;53.204;10.424;2024-02-26T17:49:32;38.65;;;17.33;;
17965;SDS011;9108;53.204;10.424;2024-02-26T17:52:00;37.40;;;16.88;;
17965;SDS011;9108;53.204;10.424;2024-02-26T17:54:28;39.05;;;16.90;;
17965;SDS011;9108;53.204;10.424;2024-02-26T17:56:55;39.40;;;17.67;;
17965;SDS011;9108;53.204;10.424;2024-02-26T17:59:23;41.73;;;17.60;;
17965;SDS011;9108;53.204;10.424;2024-02-26T18:01:51;39.40;;;16.80;;
17965;SDS011;9108;53.204;10.424;2024-02-26T18:04:18;39.47;;;17.42;;
17965;SDS011;9108;53.204;10.424;2024-02-26T18:06:49;38.88;;;17.80;;
17965;SDS011;9108;53.204;10.424;2024-02-26T18:09:16;40.25;;;18.23;;
17965;SDS011;9108;53.204;10.424;2024-02-26T18:11:43;39.33;;;17.95;;
17965;SDS011;9108;53.204;10.424;2024-02-26T18:14:11;40.25;;;18.38;;
17965;SDS011;9108;53.204;10.424;2024-02-26T18:16:39;40.85;;;18.30;;
17965;SDS011;9108;53.204;10.424;2024-02-26T18:19:06;39.78;;;17.90;;
17965;SDS011;9108;53.204;10.424;2024-02-26T18:21:33;40.08;;;18.15;;
17965;SDS011;9108;53.204;10.424;2024-02-26T18:24:02;41.55;;;18.70;;
17965;SDS011;9108;53.204;10.424;2024-02-26T18:26:29;41.20;;;17.88;;
17965;SDS011;9108;53.204;10.424;2024-02-26T18:28:56;41.50;;;18.55;;
17965;SDS011;9108;53.204;10.424;2024-02-26T18:31:23;40.22;;;18.13;;
17965;SDS011;9108;53.204;10.424;2024-02-26T18:33:50;42.05;;;18.88;;
17965;SDS011;9108;53.204;10.424;2024-02-26T18:36:18;42.83;;;19.15;;
17965;SDS011;9108;53.204;10.424;2024-02-26T18:38:47;42.08;;;18.58;;
17965;SDS011;9108;53.204;10.424;2024-02-26T18:41:19;41.65;;;18.55;;
17965;SDS011;9108;53.204;10.424;2024-02-26T18:43:47;41.58;;;18.67;;
17965;SDS011;9108;53.204;10.424;2024-02-26T18:46:15;42.95;;;18.70;;
17965;SDS011;9108;53.204;10.424;2024-02-26T18:48:43;41.70;;;18.65;;
17965;SDS011;9108;53.204;10.424;2024-02-26T18:51:10;43.33;;;19.30;;
17965;SDS011;9108;53.204;10.424;2024-02-26T18:53:38;44.77;;;19.47;;
17965;SDS011;9108;53.204;10.424;2024-02-26T18:56:06;42.00;;;19.10;;
17965;SDS011;9108;53.204;10.424;2024-02-26T18:58:34;41.75;;;18.98;;
17965;SDS011;9108;53.204;10.424;2024-02-26T19:01:01;41.53;;;18.83;;
17965;SDS011;9108;53.204;10.424;2024-02-26T19:03:29;41.13;;;18.92;;
17965;SDS011;9108;53.204;10.424;2024-02-26T19:05:56;43.93;;;19.00;;
17965;SDS011;9108;53.204;10.424;2024-02-26T19:08:24;39.67;;;18.13;;
17965;SDS011;9108;53.204;10.424;2024-02-26T19:10:51;40.63;;;18.67;;
17965;SDS011;9108;53.204;10.424;2024-02-26T19:13:18;41.10;;;18.90;;
17965;SDS011;9108;53.204;10.424;2024-02-26T19:15:47;45.15;;;19.50;;
17965;SDS011;9108;53.204;10.424;2024-02-26T19:18:14;44.50;;;19.50;;
17965;SDS011;9108;53.204;10.424;2024-02-26T19:20:41;45.47;;;19.63;;
17965;SDS011;9108;53.204;10.424;2024-02-26T19:23:09;45.67;;;19.90;;
17965;SDS011;9108;53.204;10.424;2024-02-26T19:25:38;44.63;;;19.85;;
17965;SDS011;9108;53.204;10.424;2024-02-26T19:28:07;47.30;;;20.40;;
17965;SDS011;9108;53.204;10.424;2024-02-26T19:30:34;45.20;;;19.93;;
17965;SDS011;9108;53.204;10.424;2024-02-26T19:33:02;50.77;;;20.97;;
17965;SDS011;9108;53.204;10.424;2024-02-26T19:35:30;44.42;;;20.02;;
17965;SDS011;9108;53.204;10.424;2024-02-26T19:37:58;47.50;;;19.70;;
17965;SDS011;9108;53.204;10.424;2024-02-26T19:40:25;46.72;;;20.15;;
17965;SDS011;9108;53.204;10.424;2024-02-26T19:42:52;46.70;;;20.92;;